Terminal Aerodrome Forecast
Issued by NWS

Home | Current Version | Previous Version | Graphics & Text | Print | Product List | Glossary On
Versions: 1 2 3 4 5 6 7 8 9 10 11 12 13 14 15 16 17 18 19
000
FTUS43 KICT 201400 AAB
TAFHUT
TAF AMD
KHUT 201442Z 2015/2112 01007KT P6SM SKC
      TEMPO 2015/2016 4SM BR SCT002
     FM201700 06013KT P6SM SKC
     FM210000 05005KT P6SM SKC=

USA.gov is the U.S. government's official web portal to all federal, state and local government web resources and services.